Union Mills, North Carolina
Current Conditions -  °F | °C
As of 9:55 PM on Monday 22 Dec 2014 (Local Time) from KFQD Reporting Station
Moderate Rain Moderate Rain  
Wind Chill: 39°   Ceiling: 300
Heat Index: 39°   Visibility: 3mi
Dew Point: 39°   Wind: 0mph
Humidity: 100%   Direction: NA
Pressure: 30.03"   Gusts: NA
Location:  35.49°N, 81.96°W
Report Text: KFQD 230255Z AUTO 00000KT 3SM RA OVC003 04/04 A3003 RMK AO2 T00400040
Loading
Personal Weather Stations






























Interactive Weather Map New forecast layout! Learn more

10-Day Weather Forecast

Advertisements
Track Severe Weather on mobile